createdAt,value
2022-10-13T00:00:45.353Z,9.77
2022-10-13T00:01:45.406Z,9.80
2022-10-13T00:02:45.626Z,9.81
2022-10-13T00:03:45.584Z,9.80
2022-10-13T00:04:45.679Z,9.85
2022-10-13T00:05:45.757Z,9.85
2022-10-13T00:06:45.854Z,9.78
2022-10-13T00:07:45.948Z,9.80
2022-10-13T00:08:46.037Z,9.75
2022-10-13T00:09:46.121Z,9.75
2022-10-13T00:10:46.222Z,9.75
2022-10-13T00:11:46.300Z,9.75
2022-10-13T00:12:46.513Z,9.80
2022-10-13T00:13:46.467Z,9.77
2022-10-13T00:14:46.564Z,9.77
2022-10-13T00:15:46.648Z,9.77
2022-10-13T00:16:46.739Z,9.77
2022-10-13T00:17:46.945Z,9.77
2022-10-13T00:18:46.928Z,9.75
2022-10-13T00:19:46.998Z,9.74
2022-10-13T00:20:47.102Z,9.78
2022-10-13T00:21:47.177Z,9.74
2022-10-13T00:22:47.377Z,9.81
2022-10-13T00:23:47.364Z,9.83
2022-10-13T00:24:47.464Z,9.81
2022-10-13T00:25:47.527Z,9.81
2022-10-13T00:26:47.618Z,9.81
2022-10-13T00:27:47.698Z,9.88
2022-10-13T00:28:52.276Z,9.91
2022-10-13T00:29:47.830Z,9.92
2022-10-13T00:30:47.948Z,9.93
2022-10-13T00:31:48.000Z,9.95
2022-10-13T00:32:48.108Z,9.92
2022-10-13T00:33:48.159Z,9.89
2022-10-13T00:34:48.220Z,9.91
2022-10-13T00:35:48.300Z,9.91
2022-10-13T00:36:48.408Z,9.91
2022-10-13T00:37:48.468Z,9.92
2022-10-13T00:38:48.555Z,9.95
2022-10-13T00:39:48.626Z,9.95
2022-10-13T00:40:48.714Z,9.96
2022-10-13T00:41:48.786Z,9.98
2022-10-13T00:42:48.898Z,9.99
2022-10-13T00:43:48.927Z,9.99
2022-10-13T00:44:49.029Z,9.95
2022-10-13T00:45:49.101Z,9.95
2022-10-13T00:46:49.195Z,9.93
2022-10-13T00:47:49.289Z,9.92
2022-10-13T00:48:49.360Z,9.88
2022-10-13T00:49:49.427Z,9.86
2022-10-13T00:50:49.521Z,9.85
2022-10-13T00:51:49.588Z,9.88
2022-10-13T00:52:49.787Z,9.88
2022-10-13T00:53:49.745Z,9.86
2022-10-13T00:54:49.821Z,9.93
2022-10-13T00:55:49.893Z,9.96
2022-10-13T00:56:49.991Z,10.01
2022-10-13T00:57:50.077Z,10.02
2022-10-13T00:58:50.170Z,10.04
2022-10-13T00:59:50.241Z,10.06
2022-10-13T01:00:50.392Z,9.99
2022-10-13T01:01:50.397Z,10.01
2022-10-13T01:02:50.511Z,10.04
2022-10-13T01:03:50.568Z,10.04
2022-10-13T01:04:50.637Z,10.06
2022-10-13T01:05:50.702Z,10.02
2022-10-13T01:06:50.797Z,10.01
2022-10-13T01:07:50.881Z,10.02
2022-10-13T01:08:50.946Z,10.06
2022-10-13T01:09:51.008Z,10.06
2022-10-13T01:10:51.118Z,10.09
2022-10-13T01:11:51.190Z,10.09
2022-10-13T01:12:51.326Z,10.09
2022-10-13T01:13:51.363Z,10.13
2022-10-13T01:14:51.440Z,10.10
2022-10-13T01:15:51.503Z,10.09
2022-10-13T01:16:51.594Z,10.07
2022-10-13T01:17:51.674Z,10.09
2022-10-13T01:18:51.755Z,10.07
2022-10-13T01:19:51.815Z,10.09
2022-10-13T01:20:51.895Z,10.10
2022-10-13T01:21:51.973Z,10.14
2022-10-13T01:22:52.099Z,10.14
2022-10-13T01:23:52.134Z,10.16
2022-10-13T01:24:52.212Z,10.17
2022-10-13T01:25:52.279Z,10.20
2022-10-13T01:26:52.381Z,10.20
2022-10-13T01:27:52.460Z,10.18
2022-10-13T01:28:52.547Z,10.16
2022-10-13T01:29:52.614Z,10.20
2022-10-13T01:30:52.684Z,10.22
2022-10-13T01:31:52.750Z,10.24
2022-10-13T01:32:52.851Z,10.24
2022-10-13T01:33:52.918Z,10.26
2022-10-13T01:34:52.986Z,10.26
2022-10-13T01:35:53.069Z,10.26
2022-10-13T01:36:53.156Z,10.26
2022-10-13T01:37:53.245Z,10.28
2022-10-13T01:38:53.305Z,10.31
2022-10-13T01:39:53.397Z,10.31
2022-10-13T01:40:53.465Z,10.31
2022-10-13T01:41:53.546Z,10.31
2022-10-13T01:42:53.640Z,10.25
2022-10-13T01:43:53.703Z,10.20
2022-10-13T01:44:53.786Z,10.22
2022-10-13T01:45:53.893Z,10.17
2022-10-13T01:46:54.037Z,10.16
2022-10-13T01:47:54.087Z,10.14
2022-10-13T01:48:54.141Z,10.16
2022-10-13T01:49:54.227Z,10.16
2022-10-13T01:50:54.308Z,10.11
2022-10-13T01:51:54.398Z,10.11
2022-10-13T01:52:54.485Z,10.11
2022-10-13T01:53:54.556Z,10.13
2022-10-13T01:54:54.633Z,10.16
2022-10-13T01:55:54.741Z,10.14
2022-10-13T01:56:54.820Z,10.17
2022-10-13T01:57:54.917Z,10.22
2022-10-13T01:58:54.987Z,10.16
2022-10-13T01:59:55.076Z,10.18
2022-10-13T02:00:55.184Z,10.17
2022-10-13T02:01:55.215Z,10.22
2022-10-13T02:02:55.301Z,10.24
2022-10-13T02:03:55.386Z,10.22
2022-10-13T02:04:55.457Z,10.18
2022-10-13T02:05:55.537Z,10.18
2022-10-13T02:06:55.611Z,10.17
2022-10-13T02:07:55.741Z,10.17
2022-10-13T02:08:55.771Z,10.13
2022-10-13T02:09:55.876Z,10.14
2022-10-13T02:10:55.941Z,10.13
2022-10-13T02:11:56.038Z,10.11
2022-10-13T02:12:56.228Z,10.10
2022-10-13T02:13:56.213Z,10.10
2022-10-13T02:14:56.289Z,10.07
2022-10-13T02:15:56.400Z,10.06
2022-10-13T02:16:56.477Z,10.10
2022-10-13T02:17:56.571Z,10.07
2022-10-13T02:18:56.620Z,10.07
2022-10-13T02:19:56.695Z,10.07
2022-10-13T02:20:56.765Z,10.09
2022-10-13T02:21:56.870Z,10.06
2022-10-13T02:22:56.958Z,10.04
2022-10-13T02:23:57.028Z,10.04
2022-10-13T02:24:57.105Z,10.07
2022-10-13T02:25:57.182Z,10.06
2022-10-13T02:26:57.260Z,10.07
2022-10-13T02:27:59.129Z,10.13
2022-10-13T02:28:57.406Z,10.16
2022-10-13T02:29:57.508Z,10.18
2022-10-13T02:30:57.589Z,10.20
2022-10-13T02:31:57.661Z,10.22
2022-10-13T02:32:57.739Z,10.25
2022-10-13T02:33:57.844Z,10.26
2022-10-13T02:34:57.869Z,10.25
2022-10-13T02:35:57.980Z,10.22
2022-10-13T02:36:58.056Z,10.16
2022-10-13T02:37:58.159Z,10.17
2022-10-13T02:38:58.251Z,10.18
2022-10-13T02:39:58.326Z,10.18
2022-10-13T02:40:58.385Z,10.20
2022-10-13T02:41:58.463Z,10.24
2022-10-13T02:42:58.528Z,10.25
2022-10-13T02:43:58.620Z,10.26
2022-10-13T02:44:58.688Z,10.28
2022-10-13T02:45:58.801Z,10.31
2022-10-13T02:46:58.886Z,10.32
2022-10-13T02:47:58.987Z,10.35
2022-10-13T02:48:59.054Z,10.39
2022-10-13T02:49:59.131Z,10.46
2022-10-13T02:50:59.215Z,10.47
2022-10-13T02:51:59.327Z,10.49
2022-10-13T02:52:59.393Z,10.52
2022-10-13T02:53:59.508Z,10.51
2022-10-13T02:54:59.553Z,10.52
2022-10-13T02:55:59.656Z,10.54
2022-10-13T02:56:59.716Z,10.52
2022-10-13T02:57:59.817Z,10.52
2022-10-13T02:58:59.909Z,10.52
2022-10-13T02:59:59.979Z,10.51
2022-10-13T03:01:00.080Z,10.52
2022-10-13T03:02:00.105Z,10.54
2022-10-13T03:03:00.168Z,10.55
2022-10-13T03:04:00.262Z,10.58
2022-10-13T03:05:00.322Z,10.62
2022-10-13T03:06:00.408Z,10.57
2022-10-13T03:07:00.490Z,10.58
2022-10-13T03:08:00.573Z,10.58
2022-10-13T03:09:00.654Z,10.57
2022-10-13T03:10:00.719Z,10.57
2022-10-13T03:11:00.803Z,10.55
2022-10-13T03:12:00.898Z,10.54
2022-10-13T03:13:00.978Z,10.55
2022-10-13T03:14:01.110Z,10.51
2022-10-13T03:15:01.153Z,10.51
2022-10-13T03:16:01.249Z,10.49
2022-10-13T03:17:01.321Z,10.42
2022-10-13T03:18:01.399Z,10.34
2022-10-13T03:19:01.501Z,10.28
2022-10-13T03:20:01.585Z,10.24
2022-10-13T03:21:01.632Z,10.17
2022-10-13T03:22:01.717Z,10.16
2022-10-13T03:23:01.800Z,10.17
2022-10-13T03:24:01.926Z,10.17
2022-10-13T03:25:01.972Z,10.17
2022-10-13T03:26:02.053Z,10.18
2022-10-13T03:27:02.140Z,10.22
2022-10-13T03:28:02.216Z,10.24
2022-10-13T03:29:02.316Z,10.22
2022-10-13T03:30:02.395Z,10.26
2022-10-13T03:31:02.490Z,10.29
2022-10-13T03:32:02.550Z,10.34
2022-10-13T03:33:02.622Z,10.34
2022-10-13T03:34:02.758Z,10.36
2022-10-13T03:35:02.786Z,10.39
2022-10-13T03:36:02.896Z,10.39
2022-10-13T03:37:02.966Z,10.39
2022-10-13T03:38:03.078Z,10.42
2022-10-13T03:39:03.172Z,10.39
2022-10-13T03:40:03.227Z,10.42
2022-10-13T03:41:03.284Z,10.42
2022-10-13T03:42:03.373Z,10.42
2022-10-13T03:43:03.445Z,10.42
2022-10-13T03:44:03.544Z,10.39
2022-10-13T03:45:03.586Z,10.29
2022-10-13T03:46:03.692Z,10.24
2022-10-13T03:47:03.769Z,10.20
2022-10-13T03:48:03.846Z,10.16
2022-10-13T03:49:03.935Z,10.16
2022-10-13T03:50:03.993Z,10.17
2022-10-13T03:51:04.073Z,10.14
2022-10-13T03:52:04.181Z,10.17
2022-10-13T03:53:04.269Z,10.16
2022-10-13T03:54:04.366Z,10.14
2022-10-13T03:55:04.408Z,10.14
2022-10-13T03:56:04.487Z,10.16
2022-10-13T03:57:04.560Z,10.14
2022-10-13T03:58:04.640Z,10.18
2022-10-13T03:59:04.718Z,10.18
2022-10-13T04:00:04.804Z,10.18
2022-10-13T04:01:04.895Z,10.24
2022-10-13T04:02:05.040Z,10.28
2022-10-13T04:03:05.075Z,10.28
2022-10-13T04:04:05.185Z,10.31
2022-10-13T04:05:05.242Z,10.32
2022-10-13T04:06:05.340Z,10.36
2022-10-13T04:07:05.391Z,10.39
2022-10-13T04:08:05.478Z,10.42
2022-10-13T04:09:05.578Z,10.42
2022-10-13T04:10:10.218Z,10.43
2022-10-13T04:11:05.725Z,10.39
2022-10-13T04:12:05.807Z,10.39
2022-10-13T04:13:05.864Z,10.43
2022-10-13T04:14:06.269Z,10.46
2022-10-13T04:15:06.007Z,10.46
2022-10-13T04:16:06.082Z,10.43
2022-10-13T04:17:06.136Z,10.39
2022-10-13T04:18:06.240Z,10.42
2022-10-13T04:19:06.340Z,10.42
2022-10-13T04:20:06.370Z,10.43
2022-10-13T04:21:06.457Z,10.44
2022-10-13T04:22:06.533Z,10.44
2022-10-13T04:23:06.582Z,10.46
2022-10-13T04:24:06.704Z,10.51
2022-10-13T04:25:06.755Z,10.47
2022-10-13T04:26:06.840Z,10.51
2022-10-13T04:27:06.893Z,10.47
2022-10-13T04:28:06.996Z,10.51
2022-10-13T04:29:07.074Z,10.52
2022-10-13T04:30:07.156Z,10.51
2022-10-13T04:31:07.222Z,10.52
2022-10-13T04:32:07.313Z,10.54
2022-10-13T04:33:07.383Z,10.54
2022-10-13T04:34:07.479Z,10.54
2022-10-13T04:35:07.541Z,10.55
2022-10-13T04:36:07.634Z,10.57
2022-10-13T04:37:07.683Z,10.58
2022-10-13T04:38:07.769Z,10.58
2022-10-13T04:39:07.857Z,10.62
2022-10-13T04:40:07.936Z,10.63
2022-10-13T04:41:07.999Z,10.66
2022-10-13T04:42:08.081Z,10.66
2022-10-13T04:43:08.148Z,10.66
2022-10-13T04:44:08.254Z,10.66
2022-10-13T04:45:08.297Z,10.66
2022-10-13T04:46:08.386Z,10.68
2022-10-13T04:47:08.464Z,10.68
2022-10-13T04:48:08.547Z,10.69
2022-10-13T04:49:08.633Z,10.69
2022-10-13T04:50:08.708Z,10.70
2022-10-13T04:51:08.793Z,10.62
2022-10-13T04:52:08.869Z,10.58
2022-10-13T04:53:08.961Z,10.58
2022-10-13T04:54:09.080Z,10.60
2022-10-13T04:55:09.139Z,10.63
2022-10-13T04:56:09.208Z,10.66
2022-10-13T04:57:09.294Z,10.65
2022-10-13T04:58:09.383Z,10.66
2022-10-13T04:59:09.495Z,10.66
2022-10-13T05:00:09.557Z,10.65
2022-10-13T05:01:09.674Z,10.62
2022-10-13T05:02:09.718Z,10.63
2022-10-13T05:03:09.812Z,10.60
2022-10-13T05:04:09.939Z,10.60
2022-10-13T05:05:09.993Z,10.62
2022-10-13T05:06:10.103Z,10.65
2022-10-13T05:07:18.066Z,10.66
2022-10-13T05:08:10.274Z,10.69
2022-10-13T05:09:10.368Z,10.69
2022-10-13T05:10:10.436Z,10.66
2022-10-13T05:11:10.513Z,10.66
2022-10-13T05:12:10.586Z,10.69
2022-10-13T05:13:10.670Z,10.66
2022-10-13T05:14:10.767Z,10.69
2022-10-13T05:15:10.819Z,10.68
2022-10-13T05:16:10.892Z,10.66
2022-10-13T05:17:10.965Z,10.66
2022-10-13T05:18:11.072Z,10.66
2022-10-13T05:19:11.185Z,10.66
2022-10-13T05:20:11.242Z,10.66
2022-10-13T05:21:11.316Z,10.69
2022-10-13T05:22:11.420Z,10.69
2022-10-13T05:23:11.509Z,10.68
2022-10-13T05:24:11.626Z,10.65
2022-10-13T05:25:11.668Z,10.66
2022-10-13T05:26:11.747Z,10.68
2022-10-13T05:27:11.822Z,10.69
2022-10-13T05:28:11.971Z,10.68
2022-10-13T05:29:12.032Z,10.69
2022-10-13T05:30:12.107Z,10.70
2022-10-13T05:31:12.188Z,10.69
2022-10-13T05:32:12.265Z,10.70
2022-10-13T05:33:12.318Z,10.72
2022-10-13T05:34:12.495Z,10.73
2022-10-13T05:35:12.503Z,10.72
2022-10-13T05:36:12.578Z,10.72
2022-10-13T05:37:12.638Z,10.73
2022-10-13T05:38:12.732Z,10.70
2022-10-13T05:39:12.815Z,10.68
2022-10-13T05:40:12.900Z,10.66
2022-10-13T05:41:12.966Z,10.65
2022-10-13T05:42:13.061Z,10.60
2022-10-13T05:43:13.121Z,10.57
2022-10-13T05:44:13.245Z,10.55
2022-10-13T05:45:13.297Z,10.57
2022-10-13T05:46:13.383Z,10.55
2022-10-13T05:47:13.431Z,10.58
2022-10-13T05:48:13.505Z,10.57
2022-10-13T05:49:13.583Z,10.57
2022-10-13T05:50:13.669Z,10.57
2022-10-13T05:51:13.726Z,10.62
2022-10-13T05:52:13.821Z,10.57
2022-10-13T05:53:13.880Z,10.55
2022-10-13T05:54:14.008Z,10.55
2022-10-13T05:55:14.039Z,10.52
2022-10-13T05:56:14.091Z,10.51
2022-10-13T05:57:14.168Z,10.51
2022-10-13T05:58:14.225Z,10.54
2022-10-13T05:59:14.309Z,10.54
2022-10-13T06:00:14.368Z,10.57
2022-10-13T06:01:14.455Z,10.60
2022-10-13T06:02:14.540Z,10.58
2022-10-13T06:03:14.634Z,10.60
2022-10-13T06:04:14.714Z,10.62
2022-10-13T06:05:14.804Z,10.65
2022-10-13T06:06:14.860Z,10.65
2022-10-13T06:07:14.956Z,10.63
2022-10-13T06:08:15.014Z,10.65
2022-10-13T06:09:15.123Z,10.65
2022-10-13T06:10:15.184Z,10.66
2022-10-13T06:11:15.482Z,10.66
2022-10-13T06:12:15.336Z,10.69
2022-10-13T06:13:15.445Z,10.70
2022-10-13T06:14:15.533Z,10.70
2022-10-13T06:15:15.615Z,10.70
2022-10-13T06:16:15.706Z,10.72
2022-10-13T06:17:15.798Z,10.75
2022-10-13T06:18:15.859Z,10.78
2022-10-13T06:19:15.965Z,10.75
2022-10-13T06:20:16.033Z,10.78
2022-10-13T06:21:16.135Z,10.78
2022-10-13T06:22:16.213Z,10.81
2022-10-13T06:23:16.287Z,10.80
2022-10-13T06:24:16.406Z,10.83
2022-10-13T06:25:16.476Z,10.83
2022-10-13T06:26:16.520Z,10.86
2022-10-13T06:27:16.594Z,10.87
2022-10-13T06:28:16.662Z,10.87
2022-10-13T06:29:16.762Z,10.88
2022-10-13T06:30:16.808Z,10.86
2022-10-13T06:31:16.889Z,10.83
2022-10-13T06:32:17.187Z,10.84
2022-10-13T06:33:17.056Z,10.87
2022-10-13T06:34:17.237Z,10.84
2022-10-13T06:35:17.205Z,10.81
2022-10-13T06:36:17.298Z,10.83
2022-10-13T06:37:17.365Z,10.84
2022-10-13T06:38:17.450Z,10.84
2022-10-13T06:39:17.559Z,10.88
2022-10-13T06:40:17.605Z,10.90
2022-10-13T06:41:17.675Z,10.91
2022-10-13T06:42:18.056Z,10.95
2022-10-13T06:43:17.829Z,11.01
2022-10-13T06:44:17.911Z,11.05
2022-10-13T06:45:17.970Z,11.06
2022-10-13T06:46:18.048Z,11.11
2022-10-13T06:47:18.145Z,11.12
2022-10-13T06:48:18.217Z,11.16
2022-10-13T06:49:18.310Z,11.19
2022-10-13T06:50:18.348Z,11.24
2022-10-13T06:51:18.446Z,11.24
2022-10-13T06:52:18.833Z,11.28
2022-10-13T06:53:18.625Z,11.33
2022-10-13T06:54:18.693Z,11.35
2022-10-13T06:55:18.776Z,11.36
2022-10-13T06:56:18.840Z,11.39
2022-10-13T06:57:18.921Z,11.42
2022-10-13T06:58:18.979Z,11.46
2022-10-13T06:59:19.090Z,11.49
2022-10-13T07:00:19.154Z,11.53
2022-10-13T07:01:19.213Z,11.51
2022-10-13T07:02:19.577Z,11.53
2022-10-13T07:03:19.394Z,11.46
2022-10-13T07:04:19.475Z,11.48
2022-10-13T07:05:19.561Z,11.46
2022-10-13T07:06:19.619Z,11.46
2022-10-13T07:07:19.710Z,11.48
2022-10-13T07:08:19.770Z,11.49
2022-10-13T07:09:19.890Z,11.51
2022-10-13T07:10:19.953Z,11.53
2022-10-13T07:11:20.053Z,11.53
2022-10-13T07:12:20.523Z,11.54
2022-10-13T07:14:20.294Z,11.59
2022-10-13T07:15:20.358Z,11.59
2022-10-13T07:16:20.425Z,11.62
2022-10-13T07:17:20.909Z,11.63
2022-10-13T07:18:20.603Z,11.64
2022-10-13T07:19:20.697Z,11.69
2022-10-13T07:20:20.742Z,11.67
2022-10-13T07:21:20.826Z,11.70
2022-10-13T07:22:20.877Z,11.77
2022-10-13T07:23:20.961Z,11.78
2022-10-13T07:24:21.041Z,11.77
2022-10-13T07:25:21.125Z,11.78
2022-10-13T07:26:21.180Z,11.79
2022-10-13T07:27:21.741Z,11.78
2022-10-13T07:28:21.383Z,11.78
2022-10-13T07:29:21.484Z,11.82
2022-10-13T07:30:21.615Z,11.82
2022-10-13T07:31:21.607Z,11.85
2022-10-13T07:32:21.657Z,11.88
2022-10-13T07:33:21.748Z,11.93
2022-10-13T07:34:21.819Z,11.98
2022-10-13T07:35:24.754Z,12.04
2022-10-13T07:36:21.954Z,12.08
2022-10-13T07:37:22.377Z,12.12
2022-10-13T07:38:22.106Z,12.18
2022-10-13T07:39:22.232Z,12.22
2022-10-13T07:40:22.279Z,12.25
2022-10-13T07:41:22.388Z,12.33
2022-10-13T07:42:22.477Z,12.37
2022-10-13T07:43:22.549Z,12.40
2022-10-13T07:44:22.628Z,12.44
2022-10-13T07:45:22.691Z,12.48
2022-10-13T07:46:22.767Z,12.46
2022-10-13T07:47:23.087Z,12.48
2022-10-13T07:49:23.016Z,12.44
2022-10-13T07:50:23.075Z,12.43
2022-10-13T07:51:23.143Z,12.41
2022-10-13T07:52:23.385Z,12.46
2022-10-13T07:53:23.320Z,12.51
2022-10-13T07:54:26.567Z,12.54
2022-10-13T07:55:23.459Z,12.58
2022-10-13T07:56:23.517Z,12.62
2022-10-13T07:57:23.596Z,12.67
2022-10-13T07:58:23.667Z,12.74
2022-10-13T07:59:23.755Z,12.77
2022-10-13T08:00:23.805Z,12.85
2022-10-13T08:01:23.905Z,12.88
2022-10-13T08:02:23.937Z,12.92
2022-10-13T08:03:24.016Z,12.95
2022-10-13T08:04:24.095Z,12.99
2022-10-13T08:05:24.142Z,13.04
2022-10-13T08:06:24.224Z,13.07
2022-10-13T08:07:24.286Z,13.06
2022-10-13T08:08:24.357Z,13.12
2022-10-13T08:09:24.625Z,13.13
2022-10-13T08:10:24.505Z,13.21
2022-10-13T08:11:24.585Z,13.24
2022-10-13T08:12:24.663Z,13.29
2022-10-13T08:13:24.748Z,13.39
2022-10-13T08:14:24.929Z,13.53
2022-10-13T08:15:24.912Z,13.63
2022-10-13T08:16:25.017Z,13.71
2022-10-13T08:17:25.103Z,13.87
2022-10-13T08:18:25.169Z,13.96
2022-10-13T08:19:25.252Z,14.05
2022-10-13T08:20:28.872Z,14.24
2022-10-13T08:21:53.254Z,14.46
2022-10-13T08:22:28.255Z,14.57
2022-10-13T08:23:25.539Z,14.67
2022-10-13T08:24:25.649Z,14.82
2022-10-13T08:25:25.700Z,14.95
2022-10-13T08:26:25.774Z,15.04
2022-10-13T08:27:37.063Z,15.09
2022-10-13T08:28:26.052Z,15.15
2022-10-13T08:29:26.098Z,15.16
2022-10-13T08:30:26.341Z,15.19
2022-10-13T08:31:26.389Z,15.23
2022-10-13T08:32:26.291Z,15.23
2022-10-13T08:33:26.365Z,15.27
2022-10-13T08:34:26.479Z,15.27
2022-10-13T08:35:27.816Z,15.25
2022-10-13T08:36:26.656Z,15.16
2022-10-13T08:37:26.725Z,15.11
2022-10-13T08:38:26.820Z,15.11
2022-10-13T08:39:26.895Z,15.15
2022-10-13T08:40:27.007Z,15.16
2022-10-13T08:41:27.070Z,15.19
2022-10-13T08:42:27.149Z,15.19
2022-10-13T08:43:27.204Z,15.23
2022-10-13T08:45:42.817Z,15.31
2022-10-13T08:46:27.461Z,15.33
2022-10-13T08:47:27.547Z,15.38
2022-10-13T08:48:27.619Z,15.43
2022-10-13T08:49:27.701Z,15.48
2022-10-13T08:50:27.759Z,15.53
2022-10-13T08:51:27.832Z,15.59
2022-10-13T08:52:27.922Z,15.60
2022-10-13T08:53:27.985Z,15.66
2022-10-13T08:54:28.088Z,15.71
2022-10-13T08:55:28.127Z,15.76
2022-10-13T08:56:28.218Z,15.84
2022-10-13T08:57:28.272Z,15.93
2022-10-13T08:58:28.343Z,16.07
2022-10-13T08:59:28.555Z,16.14
2022-10-13T09:00:28.484Z,16.11
2022-10-13T09:01:28.570Z,16.14
2022-10-13T09:02:28.623Z,16.18
2022-10-13T09:03:28.678Z,16.23
2022-10-13T09:04:28.784Z,16.13
2022-10-13T09:05:28.839Z,16.10
2022-10-13T09:06:28.924Z,16.06
2022-10-13T09:07:28.966Z,15.96
2022-10-13T09:08:29.056Z,15.95
2022-10-13T09:09:29.147Z,15.96
2022-10-13T09:10:29.233Z,16.03
2022-10-13T09:11:29.304Z,16.07
2022-10-13T09:12:29.378Z,16.11
2022-10-13T09:13:29.431Z,16.14
2022-10-13T09:14:29.529Z,16.06
2022-10-13T09:15:29.578Z,16.03
2022-10-13T09:16:29.673Z,15.99
2022-10-13T09:17:29.740Z,16.01
2022-10-13T09:18:29.847Z,15.93
2022-10-13T09:19:29.953Z,15.91
2022-10-13T09:20:30.021Z,15.92
2022-10-13T09:21:30.071Z,15.93
2022-10-13T09:22:30.160Z,15.93
2022-10-13T09:23:30.212Z,15.98
2022-10-13T09:24:30.325Z,16.03
2022-10-13T09:25:30.371Z,16.07
2022-10-13T09:26:30.472Z,16.11
2022-10-13T09:27:30.554Z,16.17
2022-10-13T09:28:30.641Z,16.22
2022-10-13T09:29:30.708Z,16.26
2022-10-13T09:30:30.795Z,16.26
2022-10-13T09:31:30.872Z,16.27
2022-10-13T09:32:30.975Z,16.30
2022-10-13T09:33:31.055Z,16.34
2022-10-13T09:34:31.151Z,16.41
2022-10-13T09:35:31.202Z,16.42
2022-10-13T09:36:31.393Z,16.44
2022-10-13T09:37:31.371Z,16.44
2022-10-13T09:38:31.460Z,16.42
2022-10-13T09:39:31.533Z,16.42
2022-10-13T09:40:31.649Z,16.47
2022-10-13T09:41:31.681Z,16.54
2022-10-13T09:42:31.771Z,16.62
2022-10-13T09:43:31.850Z,16.67
2022-10-13T09:44:31.983Z,16.72
2022-10-13T09:45:32.029Z,16.66
2022-10-13T09:46:32.146Z,16.65
2022-10-13T09:47:32.214Z,16.66
2022-10-13T09:48:32.282Z,16.67
2022-10-13T09:49:32.374Z,16.66
2022-10-13T09:50:32.468Z,16.69
2022-10-13T09:51:32.506Z,16.78
2022-10-13T09:52:32.609Z,16.82
2022-10-13T09:53:32.699Z,16.91
2022-10-13T09:54:32.800Z,17.00
2022-10-13T09:55:33.123Z,17.07
2022-10-13T09:56:32.964Z,17.15
2022-10-13T09:57:33.041Z,17.24
2022-10-13T09:58:33.149Z,17.33
2022-10-13T09:59:33.207Z,17.36
2022-10-13T10:00:33.273Z,17.46
2022-10-13T10:01:33.360Z,17.53
2022-10-13T10:02:33.923Z,17.60
2022-10-13T10:03:33.558Z,17.63
2022-10-13T10:04:33.623Z,17.58
2022-10-13T10:05:33.680Z,17.62
2022-10-13T10:06:33.751Z,17.60
2022-10-13T10:07:33.833Z,17.57
2022-10-13T10:08:50.964Z,17.57
2022-10-13T10:09:34.009Z,17.58
2022-10-13T10:10:34.065Z,17.55
2022-10-13T10:11:34.155Z,17.53
2022-10-13T10:12:34.204Z,17.47
2022-10-13T10:13:34.311Z,17.45
2022-10-13T10:14:34.412Z,17.45
2022-10-13T10:15:34.489Z,17.45
2022-10-13T10:16:34.577Z,17.46
2022-10-13T10:17:34.677Z,17.46
2022-10-13T10:18:34.754Z,17.45
2022-10-13T10:19:34.869Z,17.51
2022-10-13T10:20:34.928Z,17.49
2022-10-13T10:21:35.007Z,17.49
2022-10-13T10:22:35.062Z,17.49
2022-10-13T10:23:35.155Z,17.53
2022-10-13T10:24:35.253Z,17.57
2022-10-13T10:25:35.332Z,17.65
2022-10-13T10:26:35.405Z,17.66
2022-10-13T10:27:38.841Z,17.70
2022-10-13T10:28:35.585Z,17.68
2022-10-13T10:29:35.680Z,17.70
2022-10-13T10:30:35.930Z,17.68
2022-10-13T10:31:35.818Z,17.62
2022-10-13T10:32:35.887Z,17.66
2022-10-13T10:33:35.980Z,17.76
2022-10-13T10:34:36.063Z,17.80
2022-10-13T10:35:36.138Z,17.92
2022-10-13T10:36:36.206Z,17.96
2022-10-13T10:37:36.291Z,18.02
2022-10-13T10:38:36.374Z,18.10
2022-10-13T10:39:36.487Z,18.07
2022-10-13T10:40:36.523Z,18.07
2022-10-13T10:41:36.612Z,18.13
2022-10-13T10:42:36.677Z,18.16
2022-10-13T10:43:36.792Z,18.21
2022-10-13T10:44:36.923Z,18.21
2022-10-13T10:45:36.965Z,18.29
2022-10-13T10:46:37.030Z,18.41
2022-10-13T10:47:37.111Z,18.46
2022-10-13T10:48:37.166Z,18.51
2022-10-13T10:49:37.362Z,18.56
2022-10-13T10:50:37.330Z,18.53
2022-10-13T10:51:37.403Z,18.59
2022-10-13T10:52:37.457Z,18.59
2022-10-13T10:53:37.550Z,18.62
2022-10-13T10:54:37.650Z,18.64
2022-10-13T10:55:37.706Z,18.59
2022-10-13T10:56:37.792Z,18.51
2022-10-13T10:57:37.867Z,18.41
2022-10-13T10:58:37.947Z,18.44
2022-10-13T10:59:38.060Z,18.44
2022-10-13T11:00:38.110Z,18.41
2022-10-13T11:01:38.256Z,18.42
2022-10-13T11:02:38.276Z,18.44
2022-10-13T11:03:38.354Z,18.41
2022-10-13T11:04:38.450Z,18.35
2022-10-13T11:05:38.509Z,18.29
2022-10-13T11:06:38.601Z,18.21
2022-10-13T11:07:38.676Z,18.13
2022-10-13T11:08:38.728Z,18.11
2022-10-13T11:09:38.867Z,18.09
2022-10-13T11:10:38.879Z,17.98
2022-10-13T11:11:38.957Z,17.92
2022-10-13T11:12:39.008Z,17.91
2022-10-13T11:13:39.105Z,17.89
2022-10-13T11:14:39.172Z,17.86
2022-10-13T11:15:39.255Z,17.86
2022-10-13T11:16:39.306Z,17.84
2022-10-13T11:17:39.387Z,17.81
2022-10-13T11:18:39.441Z,17.84
2022-10-13T11:19:39.559Z,17.81
2022-10-13T11:20:39.610Z,17.84
2022-10-13T11:21:39.688Z,17.77
2022-10-13T11:22:39.737Z,17.81
2022-10-13T11:23:39.815Z,17.77
2022-10-13T11:24:39.923Z,17.83
2022-10-13T11:25:39.998Z,17.89
2022-10-13T11:26:40.092Z,17.95
2022-10-13T11:27:40.171Z,18.01
2022-10-13T11:28:40.283Z,18.02
2022-10-13T11:29:40.646Z,18.02
2022-10-13T11:30:40.397Z,17.98
2022-10-13T11:31:40.472Z,18.01
2022-10-13T11:32:40.552Z,18.05
2022-10-13T11:33:40.669Z,18.05
2022-10-13T11:34:40.796Z,18.07
2022-10-13T11:35:40.845Z,18.07
2022-10-13T11:36:40.931Z,18.10
2022-10-13T11:37:41.025Z,18.02
2022-10-13T11:38:41.109Z,17.99
2022-10-13T11:39:41.246Z,17.98
2022-10-13T11:40:41.269Z,18.02
2022-10-13T11:41:41.350Z,18.04
2022-10-13T11:42:41.442Z,18.07
2022-10-13T11:43:41.520Z,18.13
2022-10-13T11:44:41.611Z,18.14
2022-10-13T11:45:41.692Z,18.11
2022-10-13T11:46:41.743Z,18.11
2022-10-13T11:47:41.827Z,18.02
2022-10-13T11:48:41.872Z,18.02
2022-10-13T11:49:41.982Z,18.02
2022-10-13T11:50:42.028Z,17.94
2022-10-13T11:51:42.128Z,17.91
2022-10-13T11:52:42.169Z,17.91
2022-10-13T11:53:42.249Z,17.92
2022-10-13T11:54:42.341Z,17.91
2022-10-13T11:55:42.392Z,17.94
2022-10-13T11:56:44.948Z,17.98
2022-10-13T11:57:42.554Z,17.99
2022-10-13T11:58:42.638Z,18.07
2022-10-13T11:59:42.739Z,18.10
2022-10-13T12:00:42.771Z,18.14
2022-10-13T12:01:42.866Z,18.13
2022-10-13T12:02:43.019Z,18.10
2022-10-13T12:03:43.048Z,18.04
2022-10-13T12:04:46.678Z,17.98
2022-10-13T12:05:43.214Z,17.95
2022-10-13T12:06:43.294Z,17.96
2022-10-13T12:07:43.389Z,18.02
2022-10-13T12:08:43.457Z,18.01
2022-10-13T12:09:43.616Z,17.99
2022-10-13T12:10:43.620Z,17.94
2022-10-13T12:11:43.698Z,17.81
2022-10-13T12:12:43.752Z,17.73
2022-10-13T12:13:43.844Z,17.66
2022-10-13T12:14:43.909Z,17.65
2022-10-13T12:15:43.988Z,17.65
2022-10-13T12:16:44.127Z,17.63
2022-10-13T12:17:44.148Z,17.63
2022-10-13T12:18:44.228Z,17.66
2022-10-13T12:19:44.351Z,17.71
2022-10-13T12:20:44.388Z,17.66
2022-10-13T12:21:44.488Z,17.65
2022-10-13T12:22:44.541Z,17.65
2022-10-13T12:23:44.635Z,17.57
2022-10-13T12:24:44.696Z,17.53
2022-10-13T12:25:44.756Z,17.51
2022-10-13T12:26:44.823Z,17.51
2022-10-13T12:27:44.902Z,17.51
2022-10-13T12:28:45.028Z,17.49
2022-10-13T12:29:45.086Z,17.46
2022-10-13T12:30:45.139Z,17.43
2022-10-13T12:31:45.217Z,17.43
2022-10-13T12:32:45.309Z,17.38
2022-10-13T12:33:45.388Z,17.35
2022-10-13T12:34:45.525Z,17.35
2022-10-13T12:35:45.568Z,17.28
2022-10-13T12:36:45.655Z,17.21
2022-10-13T12:37:45.696Z,17.17
2022-10-13T12:38:45.748Z,17.14
2022-10-13T12:39:45.859Z,17.05
2022-10-13T12:40:45.950Z,17.00
2022-10-13T12:41:45.989Z,16.95
2022-10-13T12:42:46.082Z,16.92
2022-10-13T12:43:46.166Z,16.91
2022-10-13T12:44:46.235Z,16.87
2022-10-13T12:45:46.307Z,16.85
2022-10-13T12:46:46.401Z,16.84
2022-10-13T12:47:46.481Z,16.78
2022-10-13T12:48:46.555Z,16.78
2022-10-13T12:49:46.655Z,16.77
2022-10-13T12:50:46.707Z,16.75
2022-10-13T12:51:46.789Z,16.73
2022-10-13T12:52:46.864Z,16.72
2022-10-13T12:53:46.947Z,16.69
2022-10-13T12:54:47.035Z,16.69
2022-10-13T12:55:47.086Z,16.70
2022-10-13T12:56:47.223Z,16.69
2022-10-13T12:57:47.268Z,16.67
2022-10-13T12:58:47.322Z,16.60